MAPA DE AEROPUERTO

INFORMACIÓN METAR y TAF

METAR FOR VTBD
ADDS - METARS form results

(1223 UTC 26 February 2021)
Data provider http://aviationweather.gov/metar/data/
 
METAR text: VTBD 261200Z 18006KT CAVOK 32/17 Q1004 NOSIG
Conditions at: VTBD (BANGKOK/DON MUAN, TH) observed 1200 UTC 26 February 2021
Temperature: 32.0°C (90°F)
Dewpoint: 17.0°C (63°F) [RH = 41%]
Pressure (altimeter): 29.65 inches Hg (1004.0 mb)
Winds: from the S (180 degrees) at 7 MPH (6 knots; 3.1 m/s)
Visibility: 6 or more miles (10+ km)
Ceiling: ceiling and visibility are OK
Clouds: unknown
Weather: no significant weather observed at this time

METAR text: VTBD 261130Z 18007KT CAVOK 34/16 Q1004 NOSIG
Conditions at: VTBD (BANGKOK/DON MUAN, TH) observed 1130 UTC 26 February 2021
Temperature: 34.0°C (93°F)
Dewpoint: 16.0°C (61°F) [RH = 34%]
Pressure (altimeter): 29.65 inches Hg (1004.0 mb)
Winds: from the S (180 degrees) at 8 MPH (7 knots; 3.6 m/s)
Visibility: 6 or more miles (10+ km)
Ceiling: ceiling and visibility are OK
Clouds: unknown
Weather: no significant weather observed at this time

Forecast for: VTBD (BANGKOK/DON MUAN, TH)
Text: TAF VTBD 261100Z 2612/2718 20005KT 9999 FEW030
Forecast period: 1200 to 2000 UTC 26 February 2021
Forecast type: FROM: standard forecast or significant change
Winds: from the SSW (200 degrees) at 6 MPH (5 knots; 2.6 m/s)
Visibility: 6 or more miles (10+ km)
Ceiling: at least 12,000 feet AGL
Clouds: few clouds at 3000 feet AGL
Weather: no significant weather forecast for this period
Text: BECMG 2620/2622 13005KT
Forecast period: 2000 UTC 26 February 2021 to 0200 UTC 27 February 2021
Forecast type: BECOMING: Conditions expected to become as follows by 2200 UTC 26 February 2021
Winds: from the SE (130 degrees) at 6 MPH (5 knots; 2.6 m/s)
Visibility: 6 or more miles (10+ km)
Ceiling: at least 12,000 feet AGL
Clouds: few clouds at 3000 feet AGL
Weather: no significant weather forecast for this period
Text: BECMG 2702/2704 21008KT
Forecast period: 0200 to 1800 UTC 27 February 2021
Forecast type: BECOMING: Conditions expected to become as follows by 0400 UTC 27 February 2021
Winds: from the SSW (210 degrees) at 9 MPH (8 knots; 4.1 m/s)
Visibility: 6 or more miles (10+ km)
Ceiling: at least 12,000 feet AGL
Clouds: few clouds at 3000 feet AGL
Weather: no significant weather forecast for this period